EGCC/MAN METAR and TAF weather

Enter ICAO airport designator
Station Type Date Time Source
EGCC METAR 2023/01/29 19:50 UTC NOAA

EGCC 291950Z AUTO 21008KT 9999 BKN027 07/05 Q1019


Station Type Date Time Source
EGCC Decoded METAR 2023/01/29 19:50 UTC NOAA

Manchester Airport, United Kingdom (EGCC) 53-21N 002-17W 0M
Jan 29, 2023 - 02:50 PM EST / 2023.01.29 1950 UTC
Wind: from the SSW (210 degrees) at 9 MPH (8 KT):0
Visibility: greater than 7 mile(s):0
Sky conditions: mostly cloudy
Temperature: 44 F (7 C)
Dew Point: 41 F (5 C)
Relative Humidity: 87%
Pressure (altimeter): 30.09 in. Hg (1019 hPa)
ob: EGCC 291950Z AUTO 21008KT 9999 BKN027 07/05 Q1019
cycle: 20

Station Type Date Time Source
EGCC TAF 2023/01/29 18:09 UTC NOAA

TAF EGCC 291659Z 2918/3024 22008KT 9999 SCT020
BECMG 2920/2923 28010KT
TEMPO 2920/2923 8000 -RA BKN010 PROB30
TEMPO 2920/3006 30015G25KT PROB30
TEMPO 2920/2923 4000 RADZ BKN007
BECMG 3016/3019 20006KT PROB30
TEMPO 3022/3024 6000 RA BKN012

Example: see airport list